createdAt,value
2018-09-26T00:02:29.213Z,62.60
2018-09-26T00:04:57.701Z,62.90
2018-09-26T00:07:26.168Z,71.90
2018-09-26T00:09:54.528Z,63.20
2018-09-26T00:12:22.841Z,63.30
2018-09-26T00:14:51.207Z,63.20
2018-09-26T00:17:19.558Z,62.90
2018-09-26T00:19:47.964Z,62.70
2018-09-26T00:22:16.366Z,62.50
2018-09-26T00:24:44.821Z,62.40
2018-09-26T00:27:13.399Z,62.70
2018-09-26T00:29:41.837Z,63.40
2018-09-26T00:32:10.252Z,64.10
2018-09-26T00:34:38.624Z,63.90
2018-09-26T00:37:07.134Z,63.90
2018-09-26T00:39:35.548Z,64.40
2018-09-26T00:42:03.931Z,64.80
2018-09-26T00:44:32.348Z,65.40
2018-09-26T00:47:00.766Z,64.90
2018-09-26T00:49:29.265Z,64.90
2018-09-26T00:51:57.596Z,64.60
2018-09-26T00:54:25.974Z,64.30
2018-09-26T00:56:54.384Z,64.40
2018-09-26T00:59:22.694Z,70.20
2018-09-26T01:01:51.082Z,73.90
2018-09-26T01:06:47.585Z,65.10
2018-09-26T01:09:16.001Z,67.90
2018-09-26T01:11:44.432Z,65.40
2018-09-26T01:14:12.852Z,64.90
2018-09-26T01:16:41.233Z,65.00
2018-09-26T01:19:09.627Z,65.40
2018-09-26T01:21:38.070Z,64.70
2018-09-26T01:24:07.062Z,65.20
2018-09-26T01:26:35.481Z,65.90
2018-09-26T01:29:03.839Z,66.00
2018-09-26T01:31:32.305Z,66.50
2018-09-26T01:34:00.758Z,66.90
2018-09-26T01:36:29.177Z,66.70
2018-09-26T01:38:57.534Z,65.70
2018-09-26T01:48:50.336Z,68.10
2018-09-26T01:51:18.867Z,67.40
2018-09-26T01:53:47.156Z,68.40
2018-09-26T01:56:15.515Z,69.30
2018-09-26T01:58:43.856Z,69.10
2018-09-26T02:01:19.016Z,68.80
2018-09-26T02:03:47.549Z,68.10
2018-09-26T02:06:16.030Z,67.30
2018-09-26T02:08:44.453Z,67.10
2018-09-26T02:11:12.871Z,67.40
2018-09-26T02:13:41.219Z,67.00
2018-09-26T02:16:09.592Z,66.50
2018-09-26T02:18:37.891Z,66.40
2018-09-26T02:21:06.234Z,67.00
2018-09-26T02:23:34.722Z,67.10
2018-09-26T02:26:03.253Z,67.20
2018-09-26T02:28:31.646Z,66.70
2018-09-26T02:31:00.077Z,67.50
2018-09-26T02:33:28.571Z,66.70
2018-09-26T02:35:57.046Z,66.50
2018-09-26T02:38:25.518Z,65.90
2018-09-26T02:40:53.979Z,66.10
2018-09-26T02:43:22.519Z,66.60
2018-09-26T02:45:51.095Z,66.40
2018-09-26T02:53:21.526Z,65.60
2018-09-26T02:55:49.991Z,66.30
2018-09-26T02:58:18.558Z,65.50
2018-09-26T03:00:46.977Z,66.40
2018-09-26T03:03:15.443Z,67.10
2018-09-26T03:05:43.962Z,67.10
2018-09-26T03:08:12.572Z,67.30
2018-09-26T03:10:41.073Z,67.20
2018-09-26T03:13:09.559Z,67.00
2018-09-26T03:15:39.166Z,66.90
2018-09-26T03:18:07.679Z,65.80
2018-09-26T03:20:36.105Z,65.80
2018-09-26T03:23:04.710Z,66.50
2018-09-26T03:25:33.104Z,66.90
2018-09-26T03:28:01.514Z,66.90
2018-09-26T03:30:30.316Z,65.80
2018-09-26T03:32:59.930Z,65.20
2018-09-26T03:35:28.526Z,65.20
2018-09-26T03:37:56.970Z,65.70
2018-09-26T03:40:25.439Z,84.20
2018-09-26T03:42:53.972Z,65.40
2018-09-26T03:55:15.377Z,67.00
2018-09-26T03:57:43.865Z,67.70
2018-09-26T04:00:12.466Z,67.50
2018-09-26T04:02:40.947Z,67.30
2018-09-26T04:05:09.393Z,67.10
2018-09-26T04:07:37.815Z,66.90
2018-09-26T04:10:06.595Z,66.70
2018-09-26T04:12:35.129Z,67.40
2018-09-26T04:15:03.640Z,67.70
2018-09-26T04:17:33.038Z,67.20
2018-09-26T04:20:01.578Z,67.50
2018-09-26T04:22:30.036Z,68.30
2018-09-26T04:24:58.549Z,68.40
2018-09-26T04:27:27.247Z,70.30
2018-09-26T04:29:55.700Z,68.10
2018-09-26T04:32:24.264Z,65.90
2018-09-26T04:34:52.664Z,65.80
2018-09-26T04:37:21.246Z,66.50
2018-09-26T04:39:49.820Z,66.50
2018-09-26T04:42:18.400Z,66.50
2018-09-26T04:44:46.867Z,81.50
2018-09-26T04:47:15.441Z,66.50
2018-09-26T04:54:40.382Z,65.80
2018-09-26T04:57:08.971Z,68.40
2018-09-26T04:59:37.479Z,68.20
2018-09-26T05:02:06.052Z,68.90
2018-09-26T05:04:34.648Z,67.60
2018-09-26T05:07:03.279Z,66.90
2018-09-26T05:09:31.735Z,66.30
2018-09-26T05:12:00.285Z,67.10
2018-09-26T05:14:28.729Z,67.00
2018-09-26T05:16:57.247Z,67.40
2018-09-26T05:19:25.843Z,68.40
2018-09-26T05:21:54.363Z,67.70
2018-09-26T05:24:22.794Z,68.40
2018-09-26T05:26:51.231Z,68.50
2018-09-26T05:29:19.625Z,68.10
2018-09-26T05:31:48.028Z,68.30
2018-09-26T05:34:16.374Z,67.60
2018-09-26T05:36:44.747Z,67.80
2018-09-26T05:39:13.184Z,67.80
2018-09-26T05:41:41.599Z,67.20
2018-09-26T05:44:10.045Z,67.20
2018-09-26T05:49:06.562Z,70.80
2018-09-26T05:54:03.168Z,69.60
2018-09-26T05:56:31.504Z,70.30
2018-09-26T05:58:59.970Z,71.00
2018-09-26T06:01:28.372Z,71.00
2018-09-26T06:03:56.770Z,71.50
2018-09-26T06:06:25.139Z,71.50
2018-09-26T06:08:53.601Z,71.70
2018-09-26T06:11:22.024Z,71.90
2018-09-26T06:13:50.380Z,72.30
2018-09-26T06:16:18.842Z,72.80
2018-09-26T06:18:47.305Z,72.60
2018-09-26T06:23:43.818Z,72.20
2018-09-26T06:26:12.029Z,73.00
2018-09-26T06:28:40.505Z,73.10
2018-09-26T06:31:08.835Z,72.60
2018-09-26T06:33:37.160Z,76.00
2018-09-26T06:36:05.630Z,76.70
2018-09-26T06:38:33.991Z,75.90
2018-09-26T06:41:02.384Z,73.90
2018-09-26T06:43:31.085Z,73.80
2018-09-26T06:45:59.726Z,75.00
2018-09-26T06:55:52.513Z,75.70
2018-09-26T06:58:20.866Z,74.70
2018-09-26T07:00:49.239Z,74.70
2018-09-26T07:03:17.594Z,75.20
2018-09-26T07:05:46.015Z,74.10
2018-09-26T07:08:14.358Z,74.80
2018-09-26T07:10:42.675Z,73.80
2018-09-26T07:13:11.016Z,71.20
2018-09-26T07:15:39.449Z,70.50
2018-09-26T07:18:08.069Z,69.80
2018-09-26T07:20:36.511Z,70.30
2018-09-26T07:23:04.904Z,68.50
2018-09-26T07:25:33.316Z,65.70
2018-09-26T07:28:01.684Z,65.90
2018-09-26T07:30:30.152Z,64.40
2018-09-26T07:32:58.818Z,63.00
2018-09-26T07:36:30.136Z,61.30
2018-09-26T07:38:58.554Z,58.10
2018-09-26T07:41:26.978Z,58.40
2018-09-26T07:43:55.345Z,58.60
2018-09-26T07:46:23.741Z,57.50
2018-09-26T07:48:52.242Z,58.50
2018-09-26T07:51:20.684Z,57.80
2018-09-26T07:53:49.399Z,57.00
2018-09-26T07:56:17.870Z,57.80
2018-09-26T07:58:46.330Z,58.40
2018-09-26T08:01:14.783Z,56.10
2018-09-26T08:03:43.301Z,55.80
2018-09-26T08:06:11.794Z,55.40
2018-09-26T08:08:40.761Z,55.70
2018-09-26T08:11:09.613Z,54.80
2018-09-26T08:16:06.299Z,54.70
2018-09-26T08:21:02.543Z,55.10
2018-09-26T08:23:30.803Z,55.70
2018-09-26T08:25:59.133Z,54.30
2018-09-26T08:28:27.544Z,53.50
2018-09-26T08:30:55.866Z,54.10
2018-09-26T08:33:24.151Z,53.30
2018-09-26T08:35:52.402Z,53.30
2018-09-26T08:38:20.773Z,52.60
2018-09-26T08:40:49.183Z,52.80
2018-09-26T08:43:17.480Z,52.00
2018-09-26T08:45:45.699Z,52.70
2018-09-26T08:48:14.101Z,52.60
2018-09-26T08:50:42.522Z,51.80
2018-09-26T08:53:10.813Z,50.90
2018-09-26T08:55:39.105Z,51.80
2018-09-26T08:58:07.442Z,52.00
2018-09-26T09:00:36.991Z,51.00
2018-09-26T09:03:06.594Z,51.20
2018-09-26T09:05:35.001Z,48.10
2018-09-26T09:08:03.321Z,48.30
2018-09-26T09:10:31.693Z,48.20
2018-09-26T09:15:28.911Z,48.20
2018-09-26T09:20:25.427Z,46.90
2018-09-26T09:22:53.860Z,46.50
2018-09-26T09:25:22.279Z,46.40
2018-09-26T09:28:53.929Z,46.90
2018-09-26T09:31:22.421Z,45.10
2018-09-26T09:33:50.819Z,44.90
2018-09-26T09:36:19.148Z,45.90
2018-09-26T09:38:47.528Z,47.40
2018-09-26T09:41:16.018Z,46.70
2018-09-26T09:48:40.370Z,45.60
2018-09-26T09:51:08.784Z,42.10
2018-09-26T09:53:37.085Z,45.00
2018-09-26T09:56:05.546Z,44.20
2018-09-26T09:58:33.856Z,43.70
2018-09-26T10:01:07.679Z,44.30
2018-09-26T10:03:36.068Z,43.90
2018-09-26T10:06:04.479Z,42.20
2018-09-26T10:08:32.884Z,42.60
2018-09-26T10:11:01.259Z,42.20
2018-09-26T10:13:29.607Z,41.30
2018-09-26T10:18:26.137Z,39.90
2018-09-26T10:20:54.509Z,39.00
2018-09-26T10:23:23.211Z,39.10
2018-09-26T10:25:51.563Z,40.20
2018-09-26T10:28:20.985Z,40.60
2018-09-26T10:30:49.369Z,40.60
2018-09-26T10:33:17.818Z,40.50
2018-09-26T10:35:46.243Z,40.80
2018-09-26T10:38:14.737Z,41.50
2018-09-26T10:40:43.044Z,43.40
2018-09-26T10:45:39.473Z,40.30
2018-09-26T10:48:07.852Z,40.10
2018-09-26T10:50:36.167Z,41.30
2018-09-26T10:53:04.514Z,41.80
2018-09-26T10:55:32.912Z,41.90
2018-09-26T10:58:01.459Z,42.30
2018-09-26T11:00:29.828Z,42.60
2018-09-26T11:02:58.239Z,43.30
2018-09-26T11:05:26.590Z,43.80
2018-09-26T11:07:54.915Z,44.00
2018-09-26T11:10:23.354Z,43.20
2018-09-26T11:12:51.625Z,43.80
2018-09-26T11:15:20.077Z,42.60
2018-09-26T11:17:48.389Z,42.40
2018-09-26T11:20:16.833Z,42.30
2018-09-26T11:22:45.188Z,42.10
2018-09-26T11:25:13.535Z,43.10
2018-09-26T11:27:41.979Z,43.80
2018-09-26T11:30:10.337Z,43.40
2018-09-26T11:32:38.680Z,41.80
2018-09-26T11:35:07.114Z,42.20
2018-09-26T11:37:35.495Z,42.30
2018-09-26T11:40:03.880Z,42.60
2018-09-26T11:42:32.349Z,43.00
2018-09-26T11:45:00.741Z,40.60
2018-09-26T11:47:29.060Z,41.10
2018-09-26T11:49:57.590Z,40.00
2018-09-26T11:52:25.960Z,40.40
2018-09-26T11:54:54.331Z,40.60
2018-09-26T11:57:22.821Z,41.10
2018-09-26T11:59:51.148Z,40.70
2018-09-26T12:02:19.524Z,39.00
2018-09-26T12:04:47.838Z,41.10
2018-09-26T12:07:16.218Z,41.50
2018-09-26T12:09:44.647Z,39.10
2018-09-26T12:12:13.010Z,39.60
2018-09-26T12:14:41.385Z,41.60
2018-09-26T12:17:09.697Z,41.80
2018-09-26T12:19:38.021Z,43.10
2018-09-26T12:22:06.377Z,42.30
2018-09-26T12:24:34.812Z,42.70
2018-09-26T12:27:03.146Z,42.60
2018-09-26T12:29:31.530Z,42.40
2018-09-26T12:31:59.893Z,42.20
2018-09-26T12:34:28.269Z,45.40
2018-09-26T12:36:56.739Z,42.40
2018-09-26T12:41:53.215Z,45.10
2018-09-26T12:44:21.595Z,43.40
2018-09-26T12:49:18.127Z,41.70
2018-09-26T12:51:46.574Z,41.50
2018-09-26T12:54:14.943Z,41.60
2018-09-26T12:56:43.326Z,41.70
2018-09-26T12:59:11.729Z,42.50
2018-09-26T13:01:41.150Z,42.40
2018-09-26T13:04:09.480Z,42.00
2018-09-26T13:06:37.891Z,43.30
2018-09-26T13:09:06.867Z,43.70
2018-09-26T13:11:35.326Z,44.20
2018-09-26T13:14:03.705Z,43.20
2018-09-26T13:16:32.151Z,43.70
2018-09-26T13:19:00.582Z,42.80
2018-09-26T13:21:28.955Z,42.70
2018-09-26T13:23:57.303Z,43.20
2018-09-26T13:26:25.700Z,43.70
2018-09-26T13:28:54.045Z,42.20
2018-09-26T13:31:22.428Z,41.40
2018-09-26T13:36:18.880Z,40.90
2018-09-26T13:38:47.221Z,41.80
2018-09-26T13:41:15.643Z,42.20
2018-09-26T13:43:44.064Z,40.60
2018-09-26T13:46:12.740Z,40.70
2018-09-26T13:48:41.052Z,41.20
2018-09-26T13:51:09.391Z,43.50
2018-09-26T13:53:38.083Z,41.10
2018-09-26T13:56:06.757Z,41.60
2018-09-26T13:58:35.199Z,42.20
2018-09-26T14:01:03.650Z,43.10
2018-09-26T14:03:31.973Z,42.30
2018-09-26T14:06:00.289Z,41.80
2018-09-26T14:08:28.626Z,42.40
2018-09-26T14:10:56.910Z,43.40
2018-09-26T14:13:25.409Z,41.80
2018-09-26T14:15:53.893Z,41.40
2018-09-26T14:18:22.503Z,41.90
2018-09-26T14:21:07.569Z,40.70
2018-09-26T14:23:36.135Z,39.40
2018-09-26T14:26:04.723Z,41.60
2018-09-26T14:28:33.325Z,37.90
2018-09-26T14:31:02.009Z,36.50
2018-09-26T14:33:30.507Z,36.40
2018-09-26T14:35:59.041Z,34.30
2018-09-26T14:43:23.814Z,36.30
2018-09-26T14:45:52.329Z,38.40
2018-09-26T14:48:20.811Z,37.60
2018-09-26T14:50:49.330Z,39.00
2018-09-26T14:53:17.913Z,37.30
2018-09-26T14:55:46.412Z,37.30
2018-09-26T14:58:15.017Z,37.20
2018-09-26T15:00:43.521Z,38.00
2018-09-26T15:05:39.955Z,41.90
2018-09-26T15:08:08.371Z,42.00
2018-09-26T15:10:36.777Z,41.70
2018-09-26T15:13:05.235Z,42.50
2018-09-26T15:15:33.709Z,41.90
2018-09-26T15:18:02.160Z,42.20
2018-09-26T15:20:30.683Z,42.90
2018-09-26T15:22:59.276Z,43.90
2018-09-26T15:25:27.805Z,43.60
2018-09-26T15:27:56.329Z,43.30
2018-09-26T15:30:24.928Z,42.40
2018-09-26T15:32:53.278Z,41.60
2018-09-26T15:35:21.837Z,45.80
2018-09-26T15:37:50.640Z,41.60
2018-09-26T15:40:19.109Z,42.90
2018-09-26T15:42:47.497Z,41.80
2018-09-26T15:45:15.918Z,42.80
2018-09-26T15:47:44.296Z,43.20
2018-09-26T15:50:12.773Z,43.30
2018-09-26T15:52:41.169Z,43.40
2018-09-26T15:55:09.769Z,43.70
2018-09-26T15:57:38.294Z,43.80
2018-09-26T16:00:06.813Z,43.70
2018-09-26T16:02:35.143Z,44.30
2018-09-26T16:05:20.223Z,44.60
2018-09-26T16:07:48.645Z,44.60
2018-09-26T16:10:17.192Z,45.00
2018-09-26T16:12:45.594Z,45.20
2018-09-26T16:15:14.034Z,45.80
2018-09-26T16:20:10.905Z,45.70
2018-09-26T16:22:39.466Z,46.20
2018-09-26T16:25:08.137Z,46.40
2018-09-26T16:27:36.772Z,46.60
2018-09-26T16:30:05.464Z,46.50
2018-09-26T16:32:34.240Z,47.30
2018-09-26T16:42:27.954Z,51.80
2018-09-26T16:44:56.627Z,52.00
2018-09-26T16:47:25.413Z,53.30
2018-09-26T16:49:54.025Z,54.20
2018-09-26T16:52:22.744Z,55.70
2018-09-26T16:54:51.472Z,56.40
2018-09-26T16:57:20.030Z,57.00
2018-09-26T16:59:48.642Z,57.50
2018-09-26T17:02:17.378Z,57.70
2018-09-26T17:04:45.909Z,58.10
2018-09-26T17:07:14.386Z,58.50
2018-09-26T17:09:42.798Z,58.50
2018-09-26T17:12:11.217Z,58.70
2018-09-26T17:14:39.838Z,59.10
2018-09-26T17:17:08.489Z,60.10
2018-09-26T17:19:36.971Z,60.90
2018-09-26T17:24:33.492Z,61.90
2018-09-26T17:27:02.116Z,62.40
2018-09-26T17:29:30.494Z,63.00
2018-09-26T17:31:58.824Z,73.00
2018-09-26T17:34:27.378Z,66.70
2018-09-26T17:36:55.816Z,64.80
2018-09-26T17:39:24.329Z,65.70
2018-09-26T17:41:52.741Z,66.20
2018-09-26T17:46:49.200Z,67.80
2018-09-26T17:49:17.723Z,68.10
2018-09-26T17:51:46.140Z,68.10
2018-09-26T17:54:14.623Z,68.30
2018-09-26T17:56:42.977Z,68.50
2018-09-26T17:59:11.297Z,68.40
2018-09-26T18:01:39.714Z,68.50
2018-09-26T18:04:07.960Z,69.00
2018-09-26T18:06:36.583Z,69.60
2018-09-26T18:09:08.507Z,70.00
2018-09-26T18:11:37.050Z,69.90
2018-09-26T18:14:05.574Z,70.10
2018-09-26T18:16:34.126Z,70.30
2018-09-26T18:19:02.685Z,70.70
2018-09-26T18:21:31.144Z,70.70
2018-09-26T18:23:59.742Z,71.30
2018-09-26T18:26:28.395Z,70.70
2018-09-26T18:31:24.864Z,70.40
2018-09-26T18:33:53.316Z,70.50
2018-09-26T18:36:21.717Z,70.70
2018-09-26T18:38:50.177Z,70.90
2018-09-26T18:41:18.530Z,71.30
2018-09-26T18:43:46.986Z,71.50
2018-09-26T18:46:15.746Z,71.60
2018-09-26T18:48:44.140Z,71.90
2018-09-26T18:51:12.803Z,71.50
2018-09-26T18:53:41.288Z,71.00
2018-09-26T18:56:09.704Z,70.70
2018-09-26T19:03:34.307Z,71.40
2018-09-26T19:06:02.661Z,71.60
2018-09-26T19:08:31.017Z,71.70
2018-09-26T19:13:27.436Z,71.80
2018-09-26T19:15:56.096Z,71.50
2018-09-26T19:28:18.151Z,71.40
2018-09-26T19:30:46.632Z,71.90
2018-09-26T19:33:15.225Z,71.40
2018-09-26T19:35:43.920Z,70.60
2018-09-26T19:38:12.328Z,70.70
2018-09-26T19:40:40.748Z,70.80
2018-09-26T19:43:09.329Z,70.70
2018-09-26T19:45:37.761Z,70.70
2018-09-26T19:48:06.239Z,70.90
2018-09-26T19:50:34.645Z,71.00
2018-09-26T19:55:32.214Z,71.40
2018-09-26T19:58:00.541Z,71.60
2018-09-26T20:00:29.077Z,71.80
2018-09-26T20:02:57.545Z,71.50
2018-09-26T20:05:25.940Z,71.60
2018-09-26T20:07:54.349Z,71.50
2018-09-26T20:10:22.950Z,72.10
2018-09-26T20:12:55.479Z,72.20
2018-09-26T20:15:23.863Z,72.00
2018-09-26T20:20:21.261Z,72.10
2018-09-26T20:27:58.085Z,72.40
2018-09-26T20:32:56.012Z,71.70
2018-09-26T20:35:24.469Z,71.50
2018-09-26T20:37:52.891Z,71.20
2018-09-26T20:40:22.424Z,71.00
2018-09-26T20:42:51.566Z,71.00
2018-09-26T20:45:20.176Z,71.20
2018-09-26T20:47:48.676Z,70.90
2018-09-26T20:50:17.136Z,71.00
2018-09-26T20:52:45.633Z,70.90
2018-09-26T20:57:42.172Z,71.00
2018-09-26T21:00:10.729Z,72.00
2018-09-26T21:02:39.270Z,72.30
2018-09-26T21:05:07.627Z,72.90
2018-09-26T21:07:35.956Z,72.50
2018-09-26T21:10:04.532Z,72.50
2018-09-26T21:12:33.253Z,72.60
2018-09-26T21:15:01.744Z,73.20
2018-09-26T21:17:30.255Z,72.90
2018-09-26T21:19:58.698Z,72.80
2018-09-26T21:24:55.485Z,72.80
2018-09-26T21:27:24.760Z,73.30
2018-09-26T21:32:22.391Z,72.90
2018-09-26T21:34:50.945Z,73.10
2018-09-26T21:37:19.457Z,72.90
2018-09-26T21:39:47.955Z,73.50
2018-09-26T21:42:16.368Z,73.10
2018-09-26T21:44:44.858Z,73.00
2018-09-26T21:47:13.330Z,72.90
2018-09-26T21:49:41.664Z,72.90
2018-09-26T21:52:10.080Z,73.10
2018-09-26T21:54:38.620Z,73.00
2018-09-26T21:57:07.416Z,74.20
2018-09-26T21:59:35.836Z,72.80
2018-09-26T22:04:32.497Z,73.70
2018-09-26T22:07:00.916Z,74.10
2018-09-26T22:09:29.215Z,73.00
2018-09-26T22:11:57.593Z,72.60
2018-09-26T22:14:26.039Z,72.40
2018-09-26T22:16:54.373Z,72.30
2018-09-26T22:19:22.870Z,72.30
2018-09-26T22:21:51.335Z,72.50
2018-09-26T22:24:19.746Z,72.60
2018-09-26T22:26:48.278Z,72.00
2018-09-26T22:31:44.734Z,72.40
2018-09-26T22:34:13.198Z,73.80
2018-09-26T22:36:41.571Z,71.80
2018-09-26T22:39:10.877Z,71.90
2018-09-26T22:41:39.294Z,71.60
2018-09-26T22:44:07.804Z,71.90
2018-09-26T22:49:04.417Z,72.10
2018-09-26T22:54:00.909Z,72.30
2018-09-26T22:56:29.328Z,72.20
2018-09-26T22:58:57.737Z,71.90
2018-09-26T23:01:26.980Z,72.60
2018-09-26T23:08:52.097Z,73.60
2018-09-26T23:11:20.702Z,74.10
2018-09-26T23:13:49.297Z,74.00
2018-09-26T23:16:17.746Z,73.90
2018-09-26T23:18:47.090Z,73.80
2018-09-26T23:21:15.475Z,73.80
2018-09-26T23:23:43.867Z,73.60
2018-09-26T23:26:12.270Z,73.60
2018-09-26T23:28:40.888Z,73.20
2018-09-26T23:31:09.112Z,73.40
2018-09-26T23:33:37.403Z,73.70
2018-09-26T23:36:05.880Z,72.70
2018-09-26T23:38:34.075Z,72.00
2018-09-26T23:41:02.617Z,71.30
2018-09-26T23:43:31.114Z,71.40
2018-09-26T23:45:59.542Z,71.30
2018-09-26T23:48:27.981Z,71.20
2018-09-26T23:58:22.765Z,71.30
